sensor_id;sensor_type;location;lat;lon;timestamp;P1;durP1;ratioP1;P2;durP2;ratioP2
82244;SDS011;71849;50.096;14.458;2024-01-15T00:01:42;14.10;;;7.03;;
82244;SDS011;71849;50.096;14.458;2024-01-15T00:04:11;16.15;;;6.60;;
82244;SDS011;71849;50.096;14.458;2024-01-15T00:06:40;14.02;;;6.43;;
82244;SDS011;71849;50.096;14.458;2024-01-15T00:09:09;16.25;;;6.35;;
82244;SDS011;71849;50.096;14.458;2024-01-15T00:11:37;18.40;;;6.88;;
82244;SDS011;71849;50.096;14.458;2024-01-15T00:14:06;14.75;;;6.57;;
82244;SDS011;71849;50.096;14.458;2024-01-15T00:16:37;17.60;;;6.65;;
82244;SDS011;71849;50.096;14.458;2024-01-15T00:19:05;15.98;;;7.30;;
82244;SDS011;71849;50.096;14.458;2024-01-15T00:21:34;16.63;;;6.70;;
82244;SDS011;71849;50.096;14.458;2024-01-15T00:24:03;17.85;;;7.32;;
82244;SDS011;71849;50.096;14.458;2024-01-15T00:26:31;16.98;;;6.80;;
82244;SDS011;71849;50.096;14.458;2024-01-15T00:29:00;17.73;;;7.50;;
82244;SDS011;71849;50.096;14.458;2024-01-15T00:31:29;18.42;;;6.57;;
82244;SDS011;71849;50.096;14.458;2024-01-15T00:34:00;16.88;;;7.03;;
82244;SDS011;71849;50.096;14.458;2024-01-15T00:36:29;20.10;;;7.22;;
82244;SDS011;71849;50.096;14.458;2024-01-15T00:38:57;16.98;;;6.78;;
82244;SDS011;71849;50.096;14.458;2024-01-15T00:41:26;14.95;;;6.43;;
82244;SDS011;71849;50.096;14.458;2024-01-15T00:43:55;16.45;;;7.15;;
82244;SDS011;71849;50.096;14.458;2024-01-15T00:46:23;16.05;;;8.00;;
82244;SDS011;71849;50.096;14.458;2024-01-15T00:48:52;20.95;;;7.75;;
82244;SDS011;71849;50.096;14.458;2024-01-15T00:51:23;15.25;;;6.72;;
82244;SDS011;71849;50.096;14.458;2024-01-15T00:53:51;17.50;;;6.75;;
82244;SDS011;71849;50.096;14.458;2024-01-15T00:56:20;15.40;;;6.55;;
82244;SDS011;71849;50.096;14.458;2024-01-15T00:58:49;18.65;;;7.75;;
82244;SDS011;71849;50.096;14.458;2024-01-15T01:01:17;18.10;;;7.82;;
82244;SDS011;71849;50.096;14.458;2024-01-15T01:03:46;15.65;;;6.95;;
82244;SDS011;71849;50.096;14.458;2024-01-15T01:06:14;16.80;;;6.72;;
82244;SDS011;71849;50.096;14.458;2024-01-15T01:08:45;18.70;;;7.72;;
82244;SDS011;71849;50.096;14.458;2024-01-15T01:11:14;16.58;;;6.90;;
82244;SDS011;71849;50.096;14.458;2024-01-15T01:13:43;17.83;;;7.78;;
82244;SDS011;71849;50.096;14.458;2024-01-15T01:16:12;19.45;;;7.25;;
82244;SDS011;71849;50.096;14.458;2024-01-15T01:18:40;22.83;;;7.80;;
82244;SDS011;71849;50.096;14.458;2024-01-15T01:21:09;18.08;;;6.88;;
82244;SDS011;71849;50.096;14.458;2024-01-15T01:23:37;18.80;;;7.97;;
82244;SDS011;71849;50.096;14.458;2024-01-15T01:26:08;20.75;;;8.63;;
82244;SDS011;71849;50.096;14.458;2024-01-15T01:28:37;19.90;;;7.40;;
82244;SDS011;71849;50.096;14.458;2024-01-15T01:31:05;19.33;;;7.57;;
82244;SDS011;71849;50.096;14.458;2024-01-15T01:33:34;21.33;;;7.93;;
82244;SDS011;71849;50.096;14.458;2024-01-15T01:36:06;18.92;;;7.93;;
82244;SDS011;71849;50.096;14.458;2024-01-15T01:38:39;17.75;;;6.85;;
82244;SDS011;71849;50.096;14.458;2024-01-15T01:41:10;18.15;;;7.13;;
82244;SDS011;71849;50.096;14.458;2024-01-15T01:43:39;16.75;;;7.00;;
82244;SDS011;71849;50.096;14.458;2024-01-15T01:46:07;18.52;;;8.60;;
82244;SDS011;71849;50.096;14.458;2024-01-15T01:48:36;18.60;;;7.47;;
82244;SDS011;71849;50.096;14.458;2024-01-15T01:51:04;20.00;;;8.25;;
82244;SDS011;71849;50.096;14.458;2024-01-15T01:53:33;19.10;;;8.05;;
82244;SDS011;71849;50.096;14.458;2024-01-15T01:58:35;18.52;;;7.78;;
82244;SDS011;71849;50.096;14.458;2024-01-15T02:01:04;16.63;;;7.57;;
82244;SDS011;71849;50.096;14.458;2024-01-15T02:03:34;16.38;;;7.18;;
82244;SDS011;71849;50.096;14.458;2024-01-15T02:06:03;19.98;;;8.32;;
82244;SDS011;71849;50.096;14.458;2024-01-15T02:08:32;17.58;;;7.00;;
82244;SDS011;71849;50.096;14.458;2024-01-15T02:11:02;19.15;;;7.53;;
82244;SDS011;71849;50.096;14.458;2024-01-15T02:13:31;17.38;;;7.63;;
82244;SDS011;71849;50.096;14.458;2024-01-15T02:16:02;18.95;;;7.60;;
82244;SDS011;71849;50.096;14.458;2024-01-15T02:18:38;20.08;;;7.32;;
82244;SDS011;71849;50.096;14.458;2024-01-15T02:21:08;20.85;;;8.88;;
82244;SDS011;71849;50.096;14.458;2024-01-15T02:23:40;16.83;;;7.80;;
82244;SDS011;71849;50.096;14.458;2024-01-15T02:26:08;17.95;;;7.43;;
82244;SDS011;71849;50.096;14.458;2024-01-15T02:28:37;22.15;;;8.63;;
82244;SDS011;71849;50.096;14.458;2024-01-15T02:31:06;19.05;;;7.97;;
82244;SDS011;71849;50.096;14.458;2024-01-15T02:33:35;20.52;;;8.52;;
82244;SDS011;71849;50.096;14.458;2024-01-15T02:36:04;19.85;;;8.00;;
82244;SDS011;71849;50.096;14.458;2024-01-15T02:38:33;22.45;;;9.25;;
82244;SDS011;71849;50.096;14.458;2024-01-15T02:41:06;21.63;;;7.93;;
82244;SDS011;71849;50.096;14.458;2024-01-15T02:43:34;18.85;;;8.50;;
82244;SDS011;71849;50.096;14.458;2024-01-15T02:46:03;17.58;;;7.32;;
82244;SDS011;71849;50.096;14.458;2024-01-15T02:48:31;18.73;;;8.20;;
82244;SDS011;71849;50.096;14.458;2024-01-15T02:50:58;17.80;;;7.72;;
82244;SDS011;71849;50.096;14.458;2024-01-15T02:53:27;24.02;;;9.32;;
82244;SDS011;71849;50.096;14.458;2024-01-15T02:55:56;17.27;;;8.88;;
82244;SDS011;71849;50.096;14.458;2024-01-15T02:58:27;21.90;;;8.25;;
82244;SDS011;71849;50.096;14.458;2024-01-15T03:00:55;21.10;;;8.73;;
82244;SDS011;71849;50.096;14.458;2024-01-15T03:03:24;17.90;;;7.82;;
82244;SDS011;71849;50.096;14.458;2024-01-15T03:05:52;20.58;;;9.38;;
82244;SDS011;71849;50.096;14.458;2024-01-15T03:08:21;18.17;;;7.63;;
82244;SDS011;71849;50.096;14.458;2024-01-15T03:10:50;24.20;;;9.35;;
82244;SDS011;71849;50.096;14.458;2024-01-15T03:13:19;22.50;;;8.90;;
82244;SDS011;71849;50.096;14.458;2024-01-15T03:15:50;21.17;;;7.97;;
82244;SDS011;71849;50.096;14.458;2024-01-15T03:18:18;19.27;;;9.15;;
82244;SDS011;71849;50.096;14.458;2024-01-15T03:20:47;19.63;;;8.43;;
82244;SDS011;71849;50.096;14.458;2024-01-15T03:23:15;19.88;;;9.05;;
82244;SDS011;71849;50.096;14.458;2024-01-15T03:25:44;21.25;;;7.55;;
82244;SDS011;71849;50.096;14.458;2024-01-15T03:28:12;17.15;;;6.65;;
82244;SDS011;71849;50.096;14.458;2024-01-15T03:30:41;21.40;;;8.85;;
82244;SDS011;71849;50.096;14.458;2024-01-15T03:33:12;18.83;;;7.68;;
82244;SDS011;71849;50.096;14.458;2024-01-15T03:35:41;18.15;;;7.10;;
82244;SDS011;71849;50.096;14.458;2024-01-15T03:38:09;23.35;;;8.45;;
82244;SDS011;71849;50.096;14.458;2024-01-15T03:40:38;20.60;;;8.90;;
82244;SDS011;71849;50.096;14.458;2024-01-15T03:43:06;22.30;;;8.65;;
82244;SDS011;71849;50.096;14.458;2024-01-15T03:45:35;21.17;;;8.30;;
82244;SDS011;71849;50.096;14.458;2024-01-15T03:48:04;18.33;;;9.18;;
82244;SDS011;71849;50.096;14.458;2024-01-15T03:50:35;20.63;;;8.32;;
82244;SDS011;71849;50.096;14.458;2024-01-15T03:53:04;15.80;;;6.72;;
82244;SDS011;71849;50.096;14.458;2024-01-15T03:55:33;20.85;;;8.15;;
82244;SDS011;71849;50.096;14.458;2024-01-15T03:58:01;20.20;;;8.70;;
82244;SDS011;71849;50.096;14.458;2024-01-15T04:00:30;17.58;;;7.40;;
82244;SDS011;71849;50.096;14.458;2024-01-15T04:02:58;20.60;;;8.30;;
82244;SDS011;71849;50.096;14.458;2024-01-15T04:05:27;15.30;;;6.45;;
82244;SDS011;71849;50.096;14.458;2024-01-15T04:07:58;17.33;;;7.45;;
82244;SDS011;71849;50.096;14.458;2024-01-15T04:10:26;18.50;;;7.78;;
82244;SDS011;71849;50.096;14.458;2024-01-15T04:12:55;19.27;;;8.02;;
82244;SDS011;71849;50.096;14.458;2024-01-15T04:15:24;17.85;;;7.88;;
82244;SDS011;71849;50.096;14.458;2024-01-15T04:17:53;15.30;;;7.28;;
82244;SDS011;71849;50.096;14.458;2024-01-15T04:20:21;12.75;;;6.57;;
82244;SDS011;71849;50.096;14.458;2024-01-15T04:22:50;17.92;;;7.40;;
82244;SDS011;71849;50.096;14.458;2024-01-15T04:25:21;15.15;;;6.30;;
82244;SDS011;71849;50.096;14.458;2024-01-15T04:27:50;19.55;;;7.50;;
82244;SDS011;71849;50.096;14.458;2024-01-15T04:30:18;15.52;;;6.40;;
82244;SDS011;71849;50.096;14.458;2024-01-15T04:32:47;22.25;;;8.50;;
82244;SDS011;71849;50.096;14.458;2024-01-15T04:35:15;18.05;;;6.97;;
82244;SDS011;71849;50.096;14.458;2024-01-15T04:37:44;18.35;;;6.80;;
82244;SDS011;71849;50.096;14.458;2024-01-15T04:40:13;16.58;;;7.13;;
82244;SDS011;71849;50.096;14.458;2024-01-15T04:42:44;19.00;;;8.55;;
82244;SDS011;71849;50.096;14.458;2024-01-15T04:45:13;19.48;;;7.03;;
82244;SDS011;71849;50.096;14.458;2024-01-15T04:47:43;16.70;;;7.93;;
82244;SDS011;71849;50.096;14.458;2024-01-15T04:50:12;16.85;;;6.80;;
82244;SDS011;71849;50.096;14.458;2024-01-15T04:52:41;18.23;;;8.73;;
82244;SDS011;71849;50.096;14.458;2024-01-15T04:55:09;18.00;;;6.80;;
82244;SDS011;71849;50.096;14.458;2024-01-15T04:57:38;15.45;;;6.78;;
82244;SDS011;71849;50.096;14.458;2024-01-15T05:00:10;16.90;;;7.18;;
82244;SDS011;71849;50.096;14.458;2024-01-15T05:02:40;14.13;;;6.93;;
82244;SDS011;71849;50.096;14.458;2024-01-15T05:05:08;16.55;;;7.35;;
82244;SDS011;71849;50.096;14.458;2024-01-15T05:07:39;18.20;;;7.38;;
82244;SDS011;71849;50.096;14.458;2024-01-15T05:10:08;16.65;;;6.68;;
82244;SDS011;71849;50.096;14.458;2024-01-15T05:12:37;17.15;;;6.43;;
82244;SDS011;71849;50.096;14.458;2024-01-15T05:15:05;15.77;;;6.55;;
82244;SDS011;71849;50.096;14.458;2024-01-15T05:17:37;16.05;;;6.57;;
82244;SDS011;71849;50.096;14.458;2024-01-15T05:20:06;14.85;;;6.65;;
82244;SDS011;71849;50.096;14.458;2024-01-15T05:22:35;17.60;;;6.68;;
82244;SDS011;71849;50.096;14.458;2024-01-15T05:25:04;17.83;;;6.80;;
82244;SDS011;71849;50.096;14.458;2024-01-15T05:27:33;12.70;;;5.70;;
82244;SDS011;71849;50.096;14.458;2024-01-15T05:30:02;12.80;;;6.05;;
82244;SDS011;71849;50.096;14.458;2024-01-15T05:32:34;15.13;;;6.03;;
82244;SDS011;71849;50.096;14.458;2024-01-15T05:35:03;15.55;;;5.80;;
82244;SDS011;71849;50.096;14.458;2024-01-15T05:37:32;11.25;;;5.20;;
82244;SDS011;71849;50.096;14.458;2024-01-15T05:40:01;15.82;;;5.90;;
82244;SDS011;71849;50.096;14.458;2024-01-15T05:42:30;13.55;;;5.15;;
82244;SDS011;71849;50.096;14.458;2024-01-15T05:44:59;14.80;;;5.22;;
82244;SDS011;71849;50.096;14.458;2024-01-15T05:47:29;15.18;;;5.63;;
82244;SDS011;71849;50.096;14.458;2024-01-15T05:50:01;14.25;;;5.22;;
82244;SDS011;71849;50.096;14.458;2024-01-15T05:52:30;14.85;;;5.22;;
82244;SDS011;71849;50.096;14.458;2024-01-15T05:54:58;17.10;;;5.20;;
82244;SDS011;71849;50.096;14.458;2024-01-15T05:57:29;14.38;;;5.22;;
82244;SDS011;71849;50.096;14.458;2024-01-15T05:59:58;14.13;;;5.40;;
82244;SDS011;71849;50.096;14.458;2024-01-15T06:02:26;14.68;;;6.03;;
82244;SDS011;71849;50.096;14.458;2024-01-15T06:04:55;11.55;;;5.13;;
82244;SDS011;71849;50.096;14.458;2024-01-15T06:07:30;16.63;;;6.00;;
82244;SDS011;71849;50.096;14.458;2024-01-15T06:09:59;12.70;;;5.50;;
82244;SDS011;71849;50.096;14.458;2024-01-15T06:12:28;11.45;;;4.82;;
82244;SDS011;71849;50.096;14.458;2024-01-15T06:14:57;12.45;;;5.03;;
82244;SDS011;71849;50.096;14.458;2024-01-15T06:17:26;13.77;;;5.75;;
82244;SDS011;71849;50.096;14.458;2024-01-15T06:19:54;12.23;;;4.43;;
82244;SDS011;71849;50.096;14.458;2024-01-15T06:22:23;14.98;;;5.38;;
82244;SDS011;71849;50.096;14.458;2024-01-15T06:24:56;12.57;;;5.53;;
82244;SDS011;71849;50.096;14.458;2024-01-15T06:27:25;14.93;;;5.90;;
82244;SDS011;71849;50.096;14.458;2024-01-15T06:29:54;11.73;;;4.95;;
82244;SDS011;71849;50.096;14.458;2024-01-15T06:32:22;14.77;;;5.20;;
82244;SDS011;71849;50.096;14.458;2024-01-15T06:34:51;16.08;;;5.38;;
82244;SDS011;71849;50.096;14.458;2024-01-15T06:37:22;13.98;;;5.35;;
82244;SDS011;71849;50.096;14.458;2024-01-15T06:39:51;12.57;;;5.03;;
82244;SDS011;71849;50.096;14.458;2024-01-15T06:42:22;16.95;;;5.55;;
82244;SDS011;71849;50.096;14.458;2024-01-15T06:44:50;12.27;;;4.90;;
82244;SDS011;71849;50.096;14.458;2024-01-15T06:47:19;11.93;;;5.32;;
82244;SDS011;71849;50.096;14.458;2024-01-15T06:49:47;12.43;;;5.45;;
82244;SDS011;71849;50.096;14.458;2024-01-15T06:52:18;13.63;;;4.78;;
82244;SDS011;71849;50.096;14.458;2024-01-15T06:54:49;11.15;;;3.92;;
82244;SDS011;71849;50.096;14.458;2024-01-15T06:57:20;12.85;;;4.57;;
82244;SDS011;71849;50.096;14.458;2024-01-15T06:59:51;12.43;;;4.40;;
82244;SDS011;71849;50.096;14.458;2024-01-15T07:02:19;15.15;;;4.30;;
82244;SDS011;71849;50.096;14.458;2024-01-15T07:04:48;21.85;;;8.80;;
82244;SDS011;71849;50.096;14.458;2024-01-15T07:07:18;13.55;;;4.75;;
82244;SDS011;71849;50.096;14.458;2024-01-15T07:09:52;13.65;;;4.55;;
82244;SDS011;71849;50.096;14.458;2024-01-15T07:12:25;14.80;;;4.47;;
82244;SDS011;71849;50.096;14.458;2024-01-15T07:14:55;11.57;;;3.63;;
82244;SDS011;71849;50.096;14.458;2024-01-15T07:17:27;13.32;;;5.53;;
82244;SDS011;71849;50.096;14.458;2024-01-15T07:19:56;11.38;;;3.08;;
82244;SDS011;71849;50.096;14.458;2024-01-15T07:22:28;12.93;;;4.13;;
82244;SDS011;71849;50.096;14.458;2024-01-15T07:24:57;11.35;;;4.72;;
82244;SDS011;71849;50.096;14.458;2024-01-15T07:27:28;11.60;;;4.55;;
82244;SDS011;71849;50.096;14.458;2024-01-15T07:29:58;14.35;;;4.65;;
82244;SDS011;71849;50.096;14.458;2024-01-15T07:32:29;11.68;;;4.35;;
82244;SDS011;71849;50.096;14.458;2024-01-15T07:34:57;12.40;;;5.20;;
82244;SDS011;71849;50.096;14.458;2024-01-15T07:37:26;11.55;;;5.03;;
82244;SDS011;71849;50.096;14.458;2024-01-15T07:39:55;14.80;;;5.00;;
82244;SDS011;71849;50.096;14.458;2024-01-15T07:42:23;9.18;;;3.15;;
82244;SDS011;71849;50.096;14.458;2024-01-15T07:44:55;18.65;;;6.43;;
82244;SDS011;71849;50.096;14.458;2024-01-15T07:47:23;15.77;;;6.20;;
82244;SDS011;71849;50.096;14.458;2024-01-15T07:49:52;12.85;;;4.95;;
82244;SDS011;71849;50.096;14.458;2024-01-15T07:52:22;11.88;;;5.10;;
82244;SDS011;71849;50.096;14.458;2024-01-15T07:54:51;13.80;;;4.93;;
82244;SDS011;71849;50.096;14.458;2024-01-15T07:57:22;15.20;;;6.10;;
82244;SDS011;71849;50.096;14.458;2024-01-15T07:59:50;13.32;;;5.10;;
82244;SDS011;71849;50.096;14.458;2024-01-15T08:02:22;12.93;;;4.57;;
82244;SDS011;71849;50.096;14.458;2024-01-15T08:04:57;10.43;;;4.15;;
82244;SDS011;71849;50.096;14.458;2024-01-15T08:07:26;12.25;;;4.75;;
82244;SDS011;71849;50.096;14.458;2024-01-15T08:09:58;13.55;;;4.78;;
82244;SDS011;71849;50.096;14.458;2024-01-15T08:12:28;12.35;;;4.60;;
82244;SDS011;71849;50.096;14.458;2024-01-15T08:14:57;14.27;;;5.47;;
82244;SDS011;71849;50.096;14.458;2024-01-15T08:17:28;14.13;;;5.25;;
82244;SDS011;71849;50.096;14.458;2024-01-15T08:19:58;10.27;;;4.32;;
82244;SDS011;71849;50.096;14.458;2024-01-15T08:22:27;12.60;;;4.55;;
82244;SDS011;71849;50.096;14.458;2024-01-15T08:24:56;11.70;;;4.53;;
82244;SDS011;71849;50.096;14.458;2024-01-15T08:27:25;16.92;;;4.88;;
82244;SDS011;71849;50.096;14.458;2024-01-15T08:29:57;12.57;;;5.22;;
82244;SDS011;71849;50.096;14.458;2024-01-15T08:32:25;16.77;;;6.03;;
82244;SDS011;71849;50.096;14.458;2024-01-15T08:34:57;13.15;;;4.88;;
82244;SDS011;71849;50.096;14.458;2024-01-15T08:37:28;13.52;;;4.40;;
82244;SDS011;71849;50.096;14.458;2024-01-15T08:39:57;10.50;;;4.03;;
82244;SDS011;71849;50.096;14.458;2024-01-15T08:42:25;12.35;;;4.40;;
82244;SDS011;71849;50.096;14.458;2024-01-15T08:44:54;11.38;;;4.10;;
82244;SDS011;71849;50.096;14.458;2024-01-15T08:47:23;9.65;;;4.07;;
82244;SDS011;71849;50.096;14.458;2024-01-15T08:49:53;11.52;;;4.78;;
82244;SDS011;71849;50.096;14.458;2024-01-15T08:52:25;13.32;;;4.50;;
82244;SDS011;71849;50.096;14.458;2024-01-15T08:54:54;11.02;;;4.13;;
82244;SDS011;71849;50.096;14.458;2024-01-15T08:57:26;12.07;;;5.15;;
82244;SDS011;71849;50.096;14.458;2024-01-15T08:59:56;9.52;;;4.03;;
82244;SDS011;71849;50.096;14.458;2024-01-15T09:02:25;12.18;;;5.03;;
82244;SDS011;71849;50.096;14.458;2024-01-15T09:04:56;9.45;;;4.13;;
82244;SDS011;71849;50.096;14.458;2024-01-15T09:07:27;13.50;;;3.95;;
82244;SDS011;71849;50.096;14.458;2024-01-15T09:09:56;10.45;;;4.82;;
82244;SDS011;71849;50.096;14.458;2024-01-15T09:12:25;10.02;;;4.43;;
82244;SDS011;71849;50.096;14.458;2024-01-15T09:14:56;9.07;;;3.78;;
82244;SDS011;71849;50.096;14.458;2024-01-15T09:17:26;9.02;;;3.67;;
82244;SDS011;71849;50.096;14.458;2024-01-15T09:20:09;10.52;;;3.88;;
82244;SDS011;71849;50.096;14.458;2024-01-15T09:22:43;10.10;;;3.85;;
82244;SDS011;71849;50.096;14.458;2024-01-15T09:25:14;9.93;;;3.42;;
82244;SDS011;71849;50.096;14.458;2024-01-15T09:27:44;11.25;;;4.55;;
82244;SDS011;71849;50.096;14.458;2024-01-15T09:30:13;10.23;;;3.88;;
82244;SDS011;71849;50.096;14.458;2024-01-15T09:32:42;12.30;;;4.25;;
82244;SDS011;71849;50.096;14.458;2024-01-15T09:35:11;11.07;;;4.47;;
82244;SDS011;71849;50.096;14.458;2024-01-15T09:37:39;10.68;;;3.90;;
82244;SDS011;71849;50.096;14.458;2024-01-15T09:40:12;11.23;;;3.83;;
82244;SDS011;71849;50.096;14.458;2024-01-15T09:42:41;10.60;;;3.80;;
82244;SDS011;71849;50.096;14.458;2024-01-15T09:45:12;10.32;;;3.85;;
82244;SDS011;71849;50.096;14.458;2024-01-15T09:47:41;11.20;;;3.97;;
82244;SDS011;71849;50.096;14.458;2024-01-15T09:50:11;9.90;;;3.97;;
82244;SDS011;71849;50.096;14.458;2024-01-15T09:52:44;8.73;;;3.63;;
82244;SDS011;71849;50.096;14.458;2024-01-15T09:55:17;8.60;;;3.25;;
82244;SDS011;71849;50.096;14.458;2024-01-15T09:57:46;9.50;;;2.83;;
82244;SDS011;71849;50.096;14.458;2024-01-15T10:00:17;9.80;;;3.72;;
82244;SDS011;71849;50.096;14.458;2024-01-15T10:02:46;12.13;;;3.70;;
82244;SDS011;71849;50.096;14.458;2024-01-15T10:05:15;9.57;;;3.50;;
82244;SDS011;71849;50.096;14.458;2024-01-15T10:07:47;6.57;;;2.85;;
82244;SDS011;71849;50.096;14.458;2024-01-15T10:10:17;10.90;;;3.47;;
82244;SDS011;71849;50.096;14.458;2024-01-15T10:12:47;9.60;;;3.58;;
82244;SDS011;71849;50.096;14.458;2024-01-15T10:15:16;13.60;;;4.05;;
82244;SDS011;71849;50.096;14.458;2024-01-15T10:17:44;6.97;;;3.33;;
82244;SDS011;71849;50.096;14.458;2024-01-15T10:20:13;10.50;;;4.00;;
82244;SDS011;71849;50.096;14.458;2024-01-15T10:22:44;9.68;;;3.70;;
82244;SDS011;71849;50.096;14.458;2024-01-15T10:25:18;8.73;;;3.75;;
82244;SDS011;71849;50.096;14.458;2024-01-15T10:27:58;8.57;;;3.22;;
82244;SDS011;71849;50.096;14.458;2024-01-15T10:30:28;10.80;;;3.63;;
82244;SDS011;71849;50.096;14.458;2024-01-15T10:32:57;9.18;;;3.25;;
82244;SDS011;71849;50.096;14.458;2024-01-15T10:35:27;9.02;;;3.47;;
82244;SDS011;71849;50.096;14.458;2024-01-15T10:40:28;7.20;;;2.75;;
82244;SDS011;71849;50.096;14.458;2024-01-15T10:42:57;8.05;;;2.88;;
82244;SDS011;71849;50.096;14.458;2024-01-15T10:45:26;9.63;;;3.72;;
82244;SDS011;71849;50.096;14.458;2024-01-15T10:47:55;11.00;;;3.53;;
82244;SDS011;71849;50.096;14.458;2024-01-15T10:50:25;9.85;;;3.13;;
82244;SDS011;71849;50.096;14.458;2024-01-15T10:52:54;9.45;;;2.70;;
82244;SDS011;71849;50.096;14.458;2024-01-15T10:55:27;10.25;;;3.80;;
82244;SDS011;71849;50.096;14.458;2024-01-15T10:57:56;7.97;;;2.90;;
82244;SDS011;71849;50.096;14.458;2024-01-15T11:00:28;9.05;;;3.35;;
82244;SDS011;71849;50.096;14.458;2024-01-15T11:03:00;8.38;;;3.28;;
82244;SDS011;71849;50.096;14.458;2024-01-15T11:05:33;10.38;;;3.72;;
82244;SDS011;71849;50.096;14.458;2024-01-15T11:08:05;10.35;;;3.58;;
82244;SDS011;71849;50.096;14.458;2024-01-15T11:10:43;11.95;;;3.53;;
82244;SDS011;71849;50.096;14.458;2024-01-15T11:13:19;7.63;;;3.25;;
82244;SDS011;71849;50.096;14.458;2024-01-15T11:15:55;11.35;;;3.55;;
82244;SDS011;71849;50.096;14.458;2024-01-15T11:18:23;13.38;;;3.90;;
82244;SDS011;71849;50.096;14.458;2024-01-15T11:24:09;8.32;;;3.05;;
82244;SDS011;71849;50.096;14.458;2024-01-15T11:26:46;10.52;;;3.45;;
82244;SDS011;71849;50.096;14.458;2024-01-15T11:29:29;15.23;;;4.10;;
82244;SDS011;71849;50.096;14.458;2024-01-15T11:32:00;8.23;;;3.90;;
82244;SDS011;71849;50.096;14.458;2024-01-15T11:37:23;9.35;;;3.15;;
82244;SDS011;71849;50.096;14.458;2024-01-15T11:40:02;9.38;;;3.17;;
82244;SDS011;71849;50.096;14.458;2024-01-15T11:42:38;8.88;;;3.40;;
82244;SDS011;71849;50.096;14.458;2024-01-15T11:45:08;10.07;;;3.35;;
82244;SDS011;71849;50.096;14.458;2024-01-15T11:48:01;8.70;;;3.47;;
82244;SDS011;71849;50.096;14.458;2024-01-15T11:50:39;7.68;;;3.42;;
82244;SDS011;71849;50.096;14.458;2024-01-15T11:56:02;10.40;;;3.47;;
82244;SDS011;71849;50.096;14.458;2024-01-15T11:58:39;9.85;;;3.22;;
82244;SDS011;71849;50.096;14.458;2024-01-15T12:01:14;10.05;;;3.97;;
82244;SDS011;71849;50.096;14.458;2024-01-15T12:03:46;8.75;;;3.28;;
82244;SDS011;71849;50.096;14.458;2024-01-15T12:06:17;9.13;;;3.42;;
82244;SDS011;71849;50.096;14.458;2024-01-15T12:08:51;8.27;;;3.17;;
82244;SDS011;71849;50.096;14.458;2024-01-15T12:14:17;9.82;;;3.38;;
82244;SDS011;71849;50.096;14.458;2024-01-15T12:16:46;7.72;;;2.92;;
82244;SDS011;71849;50.096;14.458;2024-01-15T12:19:15;9.02;;;3.60;;
82244;SDS011;71849;50.096;14.458;2024-01-15T12:21:54;11.13;;;3.75;;
82244;SDS011;71849;50.096;14.458;2024-01-15T12:24:24;7.70;;;2.80;;
82244;SDS011;71849;50.096;14.458;2024-01-15T12:26:54;9.82;;;3.53;;
82244;SDS011;71849;50.096;14.458;2024-01-15T12:29:26;9.23;;;3.13;;
82244;SDS011;71849;50.096;14.458;2024-01-15T12:31:55;11.50;;;3.63;;
82244;SDS011;71849;50.096;14.458;2024-01-15T12:35:54;8.20;;;3.55;;
82244;SDS011;71849;50.096;14.458;2024-01-15T12:37:52;9.68;;;3.78;;
82244;SDS011;71849;50.096;14.458;2024-01-15T12:42:53;9.98;;;3.75;;
82244;SDS011;71849;50.096;14.458;2024-01-15T12:45:28;11.77;;;4.07;;
82244;SDS011;71849;50.096;14.458;2024-01-15T12:47:58;9.43;;;3.53;;
82244;SDS011;71849;50.096;14.458;2024-01-15T12:50:33;8.50;;;3.30;;
82244;SDS011;71849;50.096;14.458;2024-01-15T12:53:02;7.75;;;3.22;;
82244;SDS011;71849;50.096;14.458;2024-01-15T12:55:31;9.75;;;3.45;;
82244;SDS011;71849;50.096;14.458;2024-01-15T12:58:00;6.63;;;2.50;;
82244;SDS011;71849;50.096;14.458;2024-01-15T13:00:31;8.07;;;3.15;;
82244;SDS011;71849;50.096;14.458;2024-01-15T13:03:00;5.55;;;2.47;;
82244;SDS011;71849;50.096;14.458;2024-01-15T13:05:31;8.38;;;2.92;;
82244;SDS011;71849;50.096;14.458;2024-01-15T13:08:01;11.35;;;3.47;;
82244;SDS011;71849;50.096;14.458;2024-01-15T13:10:31;7.60;;;2.95;;
82244;SDS011;71849;50.096;14.458;2024-01-15T13:13:02;8.55;;;2.92;;
82244;SDS011;71849;50.096;14.458;2024-01-15T13:15:36;8.00;;;2.97;;
82244;SDS011;71849;50.096;14.458;2024-01-15T13:18:06;7.68;;;3.03;;
82244;SDS011;71849;50.096;14.458;2024-01-15T13:21:11;7.03;;;3.00;;
82244;SDS011;71849;50.096;14.458;2024-01-15T13:23:41;6.57;;;2.47;;
82244;SDS011;71849;50.096;14.458;2024-01-15T13:26:10;8.32;;;2.67;;
82244;SDS011;71849;50.096;14.458;2024-01-15T13:28:45;6.88;;;2.30;;
82244;SDS011;71849;50.096;14.458;2024-01-15T13:34:30;7.63;;;2.70;;
82244;SDS011;71849;50.096;14.458;2024-01-15T13:36:59;10.90;;;3.20;;
82244;SDS011;71849;50.096;14.458;2024-01-15T13:39:27;12.50;;;3.25;;
82244;SDS011;71849;50.096;14.458;2024-01-15T13:42:04;7.85;;;2.47;;
82244;SDS011;71849;50.096;14.458;2024-01-15T13:44:36;6.38;;;2.70;;
82244;SDS011;71849;50.096;14.458;2024-01-15T13:47:14;9.13;;;3.38;;
82244;SDS011;71849;50.096;14.458;2024-01-15T13:49:58;8.80;;;3.40;;
82244;SDS011;71849;50.096;14.458;2024-01-15T13:52:30;8.80;;;2.88;;
82244;SDS011;71849;50.096;14.458;2024-01-15T13:54:58;8.25;;;2.88;;
82244;SDS011;71849;50.096;14.458;2024-01-15T13:57:27;8.70;;;3.28;;
82244;SDS011;71849;50.096;14.458;2024-01-15T13:59:56;8.00;;;2.90;;
82244;SDS011;71849;50.096;14.458;2024-01-15T14:02:25;6.50;;;2.63;;
82244;SDS011;71849;50.096;14.458;2024-01-15T14:04:54;7.85;;;2.67;;
82244;SDS011;71849;50.096;14.458;2024-01-15T14:07:25;7.80;;;2.40;;
82244;SDS011;71849;50.096;14.458;2024-01-15T14:09:54;7.57;;;2.58;;
82244;SDS011;71849;50.096;14.458;2024-01-15T14:12:25;8.00;;;2.35;;
82244;SDS011;71849;50.096;14.458;2024-01-15T14:14:57;4.90;;;2.03;;
82244;SDS011;71849;50.096;14.458;2024-01-15T14:17:27;6.60;;;2.40;;
82244;SDS011;71849;50.096;14.458;2024-01-15T14:19:58;6.03;;;2.30;;
82244;SDS011;71849;50.096;14.458;2024-01-15T14:22:37;5.85;;;1.95;;
82244;SDS011;71849;50.096;14.458;2024-01-15T14:25:16;9.07;;;2.25;;
82244;SDS011;71849;50.096;14.458;2024-01-15T14:27:46;7.20;;;2.22;;
82244;SDS011;71849;50.096;14.458;2024-01-15T14:30:18;5.72;;;2.20;;
82244;SDS011;71849;50.096;14.458;2024-01-15T14:32:48;7.40;;;2.30;;
82244;SDS011;71849;50.096;14.458;2024-01-15T14:38:02;6.15;;;1.90;;
82244;SDS011;71849;50.096;14.458;2024-01-15T14:40:30;6.35;;;2.67;;
82244;SDS011;71849;50.096;14.458;2024-01-15T14:42:59;7.50;;;2.75;;
82244;SDS011;71849;50.096;14.458;2024-01-15T14:45:40;5.72;;;2.03;;
82244;SDS011;71849;50.096;14.458;2024-01-15T14:48:10;7.85;;;2.47;;
82244;SDS011;71849;50.096;14.458;2024-01-15T14:50:38;5.55;;;2.10;;
82244;SDS011;71849;50.096;14.458;2024-01-15T14:53:10;8.52;;;1.83;;
82244;SDS011;71849;50.096;14.458;2024-01-15T14:55:39;8.10;;;2.58;;
82244;SDS011;71849;50.096;14.458;2024-01-15T14:58:12;7.20;;;2.40;;
82244;SDS011;71849;50.096;14.458;2024-01-15T15:01:06;6.05;;;2.10;;
82244;SDS011;71849;50.096;14.458;2024-01-15T15:03:40;8.93;;;2.78;;
82244;SDS011;71849;50.096;14.458;2024-01-15T15:06:10;4.28;;;2.08;;
82244;SDS011;71849;50.096;14.458;2024-01-15T15:08:43;5.82;;;2.25;;
82244;SDS011;71849;50.096;14.458;2024-01-15T15:11:14;5.55;;;2.35;;